Time;durP1;ratioP1;P1;durP2;ratioP2;P2;SDS_P1;SDS_P2;PMS_P1;PMS_P2;Temp;Humidity;BMP_temperature;BMP_pressure;BME280_temperature;BME280_humidity;BME280_pressure;Samples;Min_cycle;Max_cycle;Signal;HPM_P1;HPM_P2
2022/07/30 00:02:18;;;;;;;13.15;11.80;;;13.00;99.90;;;;;;5036399;28;20120;-79
2022/07/30 00:04:44;;;;;;;12.77;11.57;;;13.10;99.90;;;;;;5020476;28;20040;-78
2022/07/30 00:07:11;;;;;;;11.48;10.32;;;12.90;99.90;;;;;;5012814;28;20033;-79
2022/07/30 00:09:37;;;;;;;12.80;11.60;;;12.90;99.90;;;;;;5024907;28;20464;-79
2022/07/30 00:12:03;;;;;;;13.32;12.05;;;12.90;99.90;;;;;;5024866;28;20064;-78
2022/07/30 00:14:29;;;;;;;12.05;10.75;;;12.80;99.90;;;;;;5008017;28;20108;-79
2022/07/30 00:16:55;;;;;;;13.80;11.45;;;12.80;99.90;;;;;;5044605;28;20136;-78
2022/07/30 00:19:20;;;;;;;15.80;14.20;;;12.80;99.90;;;;;;5008654;28;20025;-78
2022/07/30 00:21:46;;;;;;;14.43;13.05;;;12.70;99.90;;;;;;5026701;28;20088;-78
2022/07/30 00:24:12;;;;;;;14.63;13.23;;;12.70;99.90;;;;;;5027793;28;20119;-78
2022/07/30 00:26:37;;;;;;;15.82;14.30;;;12.60;99.90;;;;;;5019625;28;20049;-78
2022/07/30 00:29:04;;;;;;;14.60;13.18;;;12.60;99.90;;;;;;5025140;28;20124;-78
2022/07/30 00:31:30;;;;;;;16.10;14.50;;;12.60;99.90;;;;;;5024760;28;20065;-78
2022/07/30 00:33:55;;;;;;;15.13;13.73;;;12.60;99.90;;;;;;5007920;28;20084;-78
2022/07/30 00:36:21;;;;;;;15.05;13.65;;;12.60;99.90;;;;;;5015075;28;20129;-78
2022/07/30 00:38:47;;;;;;;14.75;13.35;;;12.60;99.90;;;;;;5025151;28;20068;-78
2022/07/30 00:41:13;;;;;;;13.15;11.98;;;12.60;99.90;;;;;;5035854;28;20033;-78
2022/07/30 00:43:38;;;;;;;15.43;13.95;;;12.50;99.90;;;;;;5017824;28;20039;-77
2022/07/30 00:46:04;;;;;;;16.35;14.70;;;12.60;99.90;;;;;;5025265;28;20423;-77
2022/07/30 00:48:30;;;;;;;16.13;14.48;;;12.50;99.90;;;;;;5022063;28;20116;-78
2022/07/30 00:50:55;;;;;;;16.33;14.73;;;12.50;99.90;;;;;;5026776;28;20128;-78
2022/07/30 00:53:21;;;;;;;20.98;15.25;;;12.60;99.90;;;;;;5019548;28;20033;-79
2022/07/30 00:55:47;;;;;;;17.70;15.55;;;12.50;99.90;;;;;;5027296;28;20029;-78
2022/07/30 00:58:12;;;;;;;20.77;17.17;;;12.50;99.90;;;;;;5021068;28;20041;-78
2022/07/30 01:00:38;;;;;;;20.75;18.48;;;12.50;99.90;;;;;;5008787;28;20167;-78
2022/07/30 01:03:03;;;;;;;22.50;19.73;;;12.50;99.90;;;;;;5035617;28;20040;-78
2022/07/30 01:05:30;;;;;;;16.77;15.07;;;12.60;99.90;;;;;;5026348;28;20044;-78
2022/07/30 01:07:55;;;;;;;17.52;15.73;;;12.60;99.90;;;;;;5024783;28;20034;-79
2022/07/30 01:10:21;;;;;;;20.13;17.02;;;12.60;99.90;;;;;;5022334;28;20042;-79
2022/07/30 01:12:46;;;;;;;18.48;16.58;;;12.60;99.90;;;;;;5025905;28;20045;-79
2022/07/30 01:15:13;;;;;;;20.30;17.83;;;12.70;99.90;;;;;;5023944;28;20036;-79
2022/07/30 01:17:38;;;;;;;18.13;16.33;;;12.70;99.90;;;;;;5005916;28;20048;-79
2022/07/30 01:20:17;;;;;;;19.13;17.17;;;12.70;99.90;;;;;;5011076;28;20100;-79
2022/07/30 01:22:49;;;;;;;21.45;19.23;;;12.70;99.90;;;;;;5034820;28;20037;-79
2022/07/30 01:25:29;;;;;;;21.33;18.40;;;12.80;99.90;;;;;;5035015;28;20033;-79
2022/07/30 01:28:17;;;;;;;21.25;19.10;;;12.80;99.90;;;;;;5038571;28;20053;-78
2022/07/30 01:30:44;;;;;;;20.88;18.35;;;12.90;99.90;;;;;;5024975;28;20041;-78
2022/07/30 01:33:14;;;;;;;24.33;18.70;;;13.00;99.90;;;;;;5030906;28;20041;-77
2022/07/30 01:35:42;;;;;;;18.92;17.13;;;13.00;99.90;;;;;;5016387;28;20123;-78
2022/07/30 01:38:10;;;;;;;19.55;16.73;;;13.10;99.90;;;;;;5018938;28;20080;-77
2022/07/30 01:40:38;;;;;;;17.35;15.75;;;13.10;99.90;;;;;;5015833;28;20051;-77
2022/07/30 01:43:06;;;;;;;18.98;17.08;;;13.20;99.90;;;;;;5034558;28;20037;-78
2022/07/30 01:45:33;;;;;;;18.25;16.60;;;13.20;99.90;;;;;;5034620;28;20064;-77
2022/07/30 01:48:01;;;;;;;17.63;16.08;;;13.30;99.90;;;;;;5029649;28;20434;-78
2022/07/30 01:50:28;;;;;;;17.05;15.40;;;13.30;99.90;;;;;;5023674;28;20038;-78
2022/07/30 01:52:56;;;;;;;18.25;16.70;;;13.40;99.90;;;;;;5014862;28;20128;-77
2022/07/30 01:55:25;;;;;;;25.98;20.17;;;13.40;99.90;;;;;;5014201;28;20072;-78
2022/07/30 01:57:54;;;;;;;17.55;16.05;;;13.40;99.90;;;;;;5012591;28;20060;-78
2022/07/30 02:00:21;;;;;;;16.50;15.00;;;13.40;99.90;;;;;;5006324;28;20480;-78
2022/07/30 02:02:47;;;;;;;22.35;16.65;;;13.50;99.90;;;;;;5023260;28;20048;-78
2022/07/30 02:05:13;;;;;;;17.48;15.88;;;13.40;99.90;;;;;;5022581;28;20391;-77
2022/07/30 02:07:52;;;;;;;17.77;16.13;;;13.50;99.90;;;;;;5023607;28;20041;-78
2022/07/30 02:10:27;;;;;;;18.58;16.63;;;13.40;99.90;;;;;;5036873;28;20048;-78
2022/07/30 02:12:55;;;;;;;37.78;20.90;;;13.50;99.90;;;;;;5009612;28;20429;-77
2022/07/30 02:15:36;;;;;;;35.35;23.50;;;13.50;99.90;;;;;;5008564;28;20044;-77
2022/07/30 02:18:05;;;;;;;23.30;18.80;;;13.60;99.90;;;;;;5047157;28;20132;-77
2022/07/30 02:20:33;;;;;;;27.20;22.05;;;13.70;99.90;;;;;;5022518;28;20033;-77
2022/07/30 02:23:06;;;;;;;23.63;21.23;;;13.70;99.90;;;;;;5034112;28;20033;-77
2022/07/30 02:25:35;;;;;;;32.00;21.20;;;13.90;99.90;;;;;;5023979;28;20561;-78
2022/07/30 02:28:08;;;;;;;40.42;21.25;;;13.80;99.90;;;;;;5022764;28;20041;-78
2022/07/30 02:30:36;;;;;;;22.38;20.08;;;14.00;99.90;;;;;;5022800;28;20120;-78
2022/07/30 02:33:05;;;;;;;31.75;20.13;;;14.00;99.90;;;;;;5016412;28;20087;-78
2022/07/30 02:35:32;;;;;;;22.40;18.30;;;14.10;99.90;;;;;;5022014;28;20076;-77
2022/07/30 02:38:00;;;;;;;19.38;17.33;;;14.20;99.90;;;;;;5009318;28;20249;-77
2022/07/30 02:40:27;;;;;;;20.73;18.15;;;14.20;99.90;;;;;;5019147;28;20113;-78
2022/07/30 02:42:53;;;;;;;18.90;16.90;;;14.20;99.90;;;;;;5025158;28;20519;-78
2022/07/30 02:45:22;;;;;;;21.67;17.50;;;14.20;99.90;;;;;;5022953;28;20082;-77
2022/07/30 02:47:52;;;;;;;22.73;17.83;;;14.20;99.90;;;;;;5013062;28;20408;-77
2022/07/30 02:50:19;;;;;;;18.92;15.70;;;14.30;99.90;;;;;;5020353;28;20514;-77
2022/07/30 02:52:46;;;;;;;18.10;16.20;;;14.30;99.90;;;;;;5024234;28;20041;-77
2022/07/30 02:55:13;;;;;;;31.30;19.05;;;14.40;99.90;;;;;;5024504;28;20042;-77
2022/07/30 02:57:41;;;;;;;18.88;15.50;;;14.40;99.90;;;;;;5020365;28;20037;-77
2022/07/30 03:00:08;;;;;;;17.88;15.80;;;14.50;99.90;;;;;;5021120;28;20038;-77
2022/07/30 03:02:35;;;;;;;29.55;17.80;;;14.50;99.90;;;;;;5025490;28;20029;-77
2022/07/30 03:05:03;;;;;;;19.63;15.50;;;14.50;99.90;;;;;;5029675;28;20045;-77
2022/07/30 03:07:30;;;;;;;16.98;14.15;;;14.60;99.90;;;;;;5051667;28;20166;-76
2022/07/30 03:09:58;;;;;;;15.73;14.02;;;14.60;99.90;;;;;;5024398;28;20085;-77
2022/07/30 03:12:26;;;;;;;18.08;14.23;;;14.60;99.90;;;;;;5033610;28;20468;-77
2022/07/30 03:14:51;;;;;;;17.55;13.77;;;14.60;99.90;;;;;;5031007;28;20041;-76
2022/07/30 03:17:18;;;;;;;16.30;14.27;;;14.70;99.90;;;;;;5024893;28;20087;-77
2022/07/30 03:19:47;;;;;;;15.60;14.05;;;14.70;99.90;;;;;;5026138;28;20044;-77
2022/07/30 03:22:16;;;;;;;16.92;14.15;;;14.60;99.90;;;;;;5031527;28;20091;-76
2022/07/30 03:24:43;;;;;;;14.15;12.07;;;14.80;99.90;;;;;;5032567;28;20119;-76
2022/07/30 03:27:09;;;;;;;16.27;12.60;;;14.70;99.90;;;;;;5030791;28;20124;-76
2022/07/30 03:29:37;;;;;;;14.48;12.88;;;14.80;99.90;;;;;;5028527;28;20033;-76
2022/07/30 03:32:04;;;;;;;14.57;11.77;;;14.70;99.90;;;;;;5027219;28;20040;-76
2022/07/30 03:34:34;;;;;;;14.18;12.48;;;14.80;99.90;;;;;;5030683;28;20489;-77
2022/07/30 03:37:03;;;;;;;13.25;10.88;;;14.80;99.90;;;;;;5020251;28;20037;-76
2022/07/30 03:39:33;;;;;;;12.30;11.07;;;14.80;99.90;;;;;;5022035;28;20118;-77
2022/07/30 03:42:00;;;;;;;12.82;11.63;;;14.80;99.90;;;;;;5029476;28;20033;-78
2022/07/30 03:44:26;;;;;;;11.23;10.13;;;14.80;99.90;;;;;;5017060;28;20399;-78
2022/07/30 03:46:53;;;;;;;11.23;10.13;;;14.80;99.90;;;;;;5018327;28;20143;-78
2022/07/30 03:49:21;;;;;;;11.70;10.43;;;14.80;99.90;;;;;;5010728;28;20163;-79
2022/07/30 03:51:48;;;;;;;14.48;10.15;;;14.90;99.90;;;;;;5028388;28;20564;-79
2022/07/30 03:54:15;;;;;;;13.10;11.90;;;14.80;99.90;;;;;;5030452;28;20043;-77
2022/07/30 03:56:41;;;;;;;21.58;12.05;;;14.90;99.90;;;;;;5026659;28;20029;-78
2022/07/30 03:59:07;;;;;;;22.98;11.10;;;14.90;99.90;;;;;;5025275;28;20052;-77
2022/07/30 04:01:33;;;;;;;19.45;11.52;;;15.00;99.90;;;;;;5009559;28;20034;-78
2022/07/30 04:04:07;;;;;;;14.38;9.80;;;15.00;99.90;;;;;;5036533;28;20066;-77
2022/07/30 04:06:38;;;;;;;40.45;13.40;;;15.00;99.90;;;;;;5036402;28;20037;-78
2022/07/30 04:09:08;;;;;;;17.17;12.27;;;15.00;99.90;;;;;;5039850;28;20541;-78
2022/07/30 04:11:34;;;;;;;12.52;11.27;;;15.00;99.90;;;;;;5034933;28;20064;-78
2022/07/30 04:13:59;;;;;;;18.92;10.48;;;15.00;99.90;;;;;;5015946;28;20033;-78
2022/07/30 04:16:40;;;;;;;12.93;10.77;;;15.10;99.90;;;;;;5005883;28;20091;-78
2022/07/30 04:19:14;;;;;;;22.73;10.35;;;15.10;99.90;;;;;;5010837;28;20099;-78
2022/07/30 04:21:41;;;;;;;12.88;10.25;;;15.10;99.90;;;;;;5027791;28;20060;-78
2022/07/30 04:24:08;;;;;;;13.63;9.90;;;15.10;99.90;;;;;;5036159;28;20120;-79
2022/07/30 04:26:35;;;;;;;11.50;10.35;;;15.10;99.90;;;;;;5035976;28;20160;-78
2022/07/30 04:29:03;;;;;;;19.00;11.63;;;15.20;99.90;;;;;;5021294;28;20037;-79
2022/07/30 04:31:34;;;;;;;12.05;10.85;;;15.10;99.90;;;;;;5032632;28;20094;-78
2022/07/30 04:34:00;;;;;;;12.55;11.32;;;15.30;99.90;;;;;;4996797;28;20045;-79
2022/07/30 04:36:26;;;;;;;12.38;11.18;;;15.20;99.90;;;;;;4996489;28;20519;-78
2022/07/30 04:38:51;;;;;;;12.82;11.52;;;15.30;99.90;;;;;;5008132;28;20037;-78
2022/07/30 04:41:17;;;;;;;13.93;12.23;;;15.30;99.90;;;;;;5035897;28;20110;-80
2022/07/30 04:43:42;;;;;;;15.10;12.85;;;15.30;99.90;;;;;;5027101;28;20116;-78
2022/07/30 04:46:08;;;;;;;13.25;11.95;;;15.30;99.90;;;;;;5018715;28;20102;-79
2022/07/30 04:48:34;;;;;;;14.35;12.73;;;15.40;99.90;;;;;;5025604;28;20041;-79
2022/07/30 04:51:03;;;;;;;12.93;11.55;;;15.50;99.90;;;;;;5010301;28;20044;-79
2022/07/30 04:53:31;;;;;;;14.00;12.60;;;15.50;99.90;;;;;;5011153;28;20040;-78
2022/07/30 04:55:58;;;;;;;13.25;11.93;;;15.50;99.90;;;;;;5024464;28;20098;-79
2022/07/30 04:58:25;;;;;;;16.35;13.50;;;15.50;99.90;;;;;;5016667;28;20034;-78
2022/07/30 05:00:54;;;;;;;21.08;13.50;;;15.60;99.90;;;;;;5015486;28;20034;-78
2022/07/30 05:03:21;;;;;;;14.48;12.98;;;15.60;99.90;;;;;;5021429;28;20584;-79
2022/07/30 05:05:47;;;;;;;13.63;12.18;;;15.70;99.90;;;;;;5030889;28;20438;-78
2022/07/30 05:08:13;;;;;;;14.30;12.90;;;15.70;99.90;;;;;;5031286;28;20059;-78
2022/07/30 05:10:39;;;;;;;13.45;12.15;;;15.70;99.90;;;;;;5026646;28;20339;-78
2022/07/30 05:13:10;;;;;;;14.20;12.73;;;15.70;99.90;;;;;;5022707;28;20048;-77
2022/07/30 05:15:36;;;;;;;14.65;12.75;;;15.80;99.90;;;;;;5008663;28;20037;-78
2022/07/30 05:18:02;;;;;;;14.73;13.05;;;15.90;99.90;;;;;;5027760;28;20041;-77
2022/07/30 05:20:27;;;;;;;13.15;11.95;;;15.90;99.90;;;;;;5018738;28;20044;-78
2022/07/30 05:22:53;;;;;;;13.98;12.50;;;16.00;99.90;;;;;;5026455;28;20458;-78
2022/07/30 05:25:18;;;;;;;13.90;11.75;;;16.00;99.90;;;;;;5031828;28;20541;-78
2022/07/30 05:27:44;;;;;;;15.60;12.75;;;16.10;99.90;;;;;;5010165;28;20131;-78
2022/07/30 05:30:10;;;;;;;12.68;11.07;;;16.10;99.90;;;;;;5008008;28;20041;-79
2022/07/30 05:32:36;;;;;;;12.57;11.32;;;16.10;99.90;;;;;;5036558;28;20049;-79
2022/07/30 05:35:01;;;;;;;13.57;11.75;;;16.20;99.90;;;;;;5013575;28;20048;-78
2022/07/30 05:37:27;;;;;;;12.32;11.02;;;16.20;99.90;;;;;;4998827;28;20038;-79
2022/07/30 05:39:53;;;;;;;13.93;10.88;;;16.30;99.90;;;;;;4999788;28;20086;-79
2022/07/30 05:42:18;;;;;;;13.68;11.07;;;16.40;99.90;;;;;;5034663;28;20086;-78
2022/07/30 05:44:44;;;;;;;12.10;10.88;;;16.40;99.90;;;;;;5011004;28;20508;-78
2022/07/30 05:47:09;;;;;;;14.27;11.82;;;16.40;99.90;;;;;;5028373;28;20029;-79
2022/07/30 05:49:35;;;;;;;11.43;10.27;;;16.60;99.90;;;;;;5023887;28;20114;-78
2022/07/30 05:52:00;;;;;;;12.05;10.82;;;16.60;99.90;;;;;;5026201;28;20040;-78
2022/07/30 05:54:26;;;;;;;12.15;10.45;;;16.70;99.90;;;;;;5018094;28;20560;-78
2022/07/30 05:56:52;;;;;;;14.18;11.00;;;16.70;99.90;;;;;;5009964;28;20040;-78
2022/07/30 05:59:17;;;;;;;12.75;11.05;;;16.90;99.90;;;;;;5004506;28;20072;-79
2022/07/30 06:01:43;;;;;;;12.65;10.27;;;17.00;99.90;;;;;;5022630;28;20044;-78
2022/07/30 06:04:08;;;;;;;13.07;9.90;;;17.20;99.90;;;;;;4998081;28;20037;-78
2022/07/30 06:06:34;;;;;;;12.60;9.70;;;17.20;99.90;;;;;;5007735;28;20048;-83
2022/07/30 06:08:59;;;;;;;11.52;9.13;;;17.30;99.90;;;;;;4993802;28;20044;-80
2022/07/30 06:11:25;;;;;;;12.30;8.98;;;17.30;99.90;;;;;;5004122;28;20041;-79
2022/07/30 06:13:51;;;;;;;11.30;9.20;;;17.30;99.90;;;;;;5010996;28;20069;-79
2022/07/30 06:16:16;;;;;;;10.90;9.65;;;17.30;99.90;;;;;;5028500;28;20475;-81
2022/07/30 06:18:42;;;;;;;11.27;10.18;;;17.40;99.90;;;;;;5010789;28;20038;-81
2022/07/30 06:21:07;;;;;;;14.52;10.73;;;17.40;99.90;;;;;;5005146;28;20168;-80
2022/07/30 06:23:33;;;;;;;13.05;10.40;;;17.40;99.90;;;;;;5015534;28;20029;-82
2022/07/30 06:25:59;;;;;;;14.35;10.65;;;17.40;99.90;;;;;;5008604;28;20485;-79
2022/07/30 06:28:24;;;;;;;13.50;10.95;;;17.50;99.90;;;;;;5022853;28;20038;-79
2022/07/30 06:30:50;;;;;;;15.43;10.48;;;17.50;99.90;;;;;;5030390;28;20038;-79
2022/07/30 06:33:15;;;;;;;11.88;10.55;;;17.50;99.90;;;;;;4997979;28;20384;-80
2022/07/30 06:35:41;;;;;;;11.82;10.18;;;17.70;99.90;;;;;;4998705;28;20030;-79
2022/07/30 06:38:07;;;;;;;15.90;10.43;;;17.80;99.90;;;;;;5006868;28;20115;-80
2022/07/30 06:40:33;;;;;;;12.57;9.80;;;18.00;99.90;;;;;;5022613;28;20025;-79
2022/07/30 06:42:58;;;;;;;11.88;10.68;;;18.20;99.90;;;;;;5017468;28;20063;-80
2022/07/30 06:45:24;;;;;;;13.48;9.07;;;18.30;99.90;;;;;;5002519;28;20042;-80
2022/07/30 06:47:50;;;;;;;15.48;10.07;;;18.50;99.90;;;;;;5013918;28;20558;-80
2022/07/30 06:50:17;;;;;;;11.90;8.70;;;18.60;99.90;;;;;;5010233;28;20091;-80
2022/07/30 06:52:43;;;;;;;13.07;11.52;;;18.60;99.90;;;;;;5005153;28;20037;-82
2022/07/30 06:55:09;;;;;;;13.70;11.63;;;18.80;99.90;;;;;;5023071;28;20043;-82
2022/07/30 06:57:34;;;;;;;15.75;11.90;;;18.90;99.90;;;;;;5003703;28;20132;-81
2022/07/30 07:00:00;;;;;;;14.80;11.45;;;18.90;99.90;;;;;;5008637;28;20033;-81
2022/07/30 07:02:26;;;;;;;10.73;8.82;;;19.00;99.90;;;;;;5017625;28;20045;-81
2022/07/30 07:04:51;;;;;;;11.38;9.32;;;19.00;99.90;;;;;;5025398;28;20040;-81
2022/07/30 07:07:17;;;;;;;12.48;8.90;;;19.10;99.90;;;;;;5023089;28;20029;-81
2022/07/30 07:09:43;;;;;;;9.55;7.68;;;19.20;99.90;;;;;;5021461;28;20119;-81
2022/07/30 07:12:08;;;;;;;10.43;7.60;;;19.30;99.90;;;;;;5014099;28;20029;-80
2022/07/30 07:14:34;;;;;;;10.55;7.35;;;19.40;99.90;;;;;;5007181;28;20075;-81
2022/07/30 07:16:59;;;;;;;10.00;7.28;;;19.40;99.90;;;;;;5000976;28;20120;-81
2022/07/30 07:19:25;;;;;;;9.20;6.88;;;19.50;99.90;;;;;;4999942;28;20033;-81
2022/07/30 07:21:51;;;;;;;10.63;6.55;;;19.60;99.90;;;;;;5002507;28;20353;-81
2022/07/30 07:24:16;;;;;;;11.07;6.53;;;19.60;99.90;;;;;;5033270;28;20380;-82
2022/07/30 07:26:42;;;;;;;12.32;6.72;;;19.70;99.90;;;;;;5017444;28;20043;-81
2022/07/30 07:29:08;;;;;;;9.77;5.82;;;19.80;99.90;;;;;;5014288;28;20491;-82
2022/07/30 07:31:33;;;;;;;8.23;5.53;;;19.80;99.90;;;;;;5005836;28;20038;-81
2022/07/30 07:33:59;;;;;;;7.80;4.97;;;19.90;99.90;;;;;;5033379;28;20037;-81
2022/07/30 07:36:25;;;;;;;7.70;4.72;;;19.80;99.90;;;;;;5033351;28;20079;-81
2022/07/30 07:38:50;;;;;;;8.65;4.85;;;19.80;99.90;;;;;;5016654;28;20487;-81
2022/07/30 07:41:16;;;;;;;5.85;4.40;;;19.90;99.90;;;;;;5017956;28;20044;-81
2022/07/30 07:43:42;;;;;;;6.88;3.97;;;20.00;99.90;;;;;;4998771;28;20033;-81
2022/07/30 07:46:07;;;;;;;5.60;4.10;;;20.00;99.90;;;;;;5012059;28;20045;-81
2022/07/30 07:48:33;;;;;;;8.98;4.47;;;19.90;99.90;;;;;;5019191;28;20069;-81
2022/07/30 07:50:59;;;;;;;5.95;4.75;;;19.80;99.90;;;;;;5016947;28;20041;-81
2022/07/30 07:53:25;;;;;;;8.27;5.38;;;19.90;99.90;;;;;;4995730;28;20088;-81
2022/07/30 07:55:51;;;;;;;9.93;6.07;;;20.10;99.90;;;;;;5022025;28;20068;-81
2022/07/30 07:58:17;;;;;;;10.18;6.05;;;20.20;99.90;;;;;;5016182;28;20060;-80
2022/07/30 08:00:43;;;;;;;10.15;5.72;;;20.30;99.90;;;;;;5028369;28;20043;-80
2022/07/30 08:03:08;;;;;;;9.95;6.15;;;20.30;99.90;;;;;;5023685;28;21118;-80
2022/07/30 08:05:34;;;;;;;8.45;6.13;;;20.40;99.90;;;;;;5019253;28;20037;-80
2022/07/30 08:07:59;;;;;;;8.20;5.90;;;20.50;99.90;;;;;;5008517;28;20178;-80
2022/07/30 08:10:25;;;;;;;8.43;6.18;;;20.60;99.90;;;;;;5010245;28;20287;-80
2022/07/30 08:13:05;;;;;;;9.50;5.80;;;20.60;99.90;;;;;;5037306;23;20041;-80
2022/07/30 08:15:33;;;;;;;8.70;5.60;;;20.60;99.90;;;;;;5026301;28;20052;-81
2022/07/30 08:18:15;;;;;;;6.43;4.90;;;20.80;99.90;;;;;;5014727;28;20029;-80
2022/07/30 08:20:41;;;;;;;6.68;4.30;;;21.30;99.90;;;;;;5014109;28;20485;-78
2022/07/30 08:23:07;;;;;;;7.25;4.20;;;22.10;99.90;;;;;;5018801;28;20218;-81
2022/07/30 08:25:36;;;;;;;11.88;4.72;;;22.80;99.90;;;;;;5036958;28;20407;-81
2022/07/30 08:28:02;;;;;;;7.35;4.55;;;23.40;99.90;;;;;;5033090;28;20029;-80
2022/07/30 08:30:34;;;;;;;6.10;4.10;;;23.70;99.90;;;;;;5024933;28;20059;-80
2022/07/30 08:33:02;;;;;;;8.10;4.03;;;24.10;99.90;;;;;;5027312;28;20491;-80
2022/07/30 08:35:28;;;;;;;6.75;4.20;;;24.30;99.90;;;;;;5027129;28;20037;-80
2022/07/30 08:37:59;;;;;;;8.27;4.25;;;24.80;99.90;;;;;;5019652;28;20039;-80
2022/07/30 08:41:15;;;;;;;6.57;4.10;;;25.40;99.90;;;;;;5035925;28;20468;-80
2022/07/30 08:43:46;;;;;;;5.55;3.17;;;26.10;99.90;;;;;;5027266;28;20081;-81
2022/07/30 08:46:17;;;;;;;6.35;3.08;;;26.60;99.90;;;;;;5032832;28;20049;-83
2022/07/30 08:48:44;;;;;;;5.72;2.63;;;26.90;99.90;;;;;;5014716;28;20043;-82
2022/07/30 08:51:10;;;;;;;5.07;2.60;;;26.70;99.40;;;;;;5018121;28;20041;-82
2022/07/30 08:53:36;;;;;;;6.30;3.20;;;26.60;99.20;;;;;;5035688;28;20128;-83
2022/07/30 08:56:02;;;;;;;5.63;3.15;;;26.90;97.60;;;;;;5019167;28;20128;-84
2022/07/30 08:58:54;;;;;;;5.55;2.42;;;27.30;94.60;;;;;;5015411;28;20033;-84
2022/07/30 09:01:21;;;;;;;4.80;2.40;;;27.70;90.60;;;;;;5025886;28;20055;-83
2022/07/30 09:03:47;;;;;;;3.97;2.50;;;28.10;91.10;;;;;;5015997;28;20380;-83
2022/07/30 09:06:14;;;;;;;1.90;1.60;;;28.40;89.20;;;;;;5012667;28;20040;-83
2022/07/30 09:08:41;;;;;;;3.67;1.77;;;28.70;87.80;;;;;;5012759;28;20041;-83
2022/07/30 09:11:06;;;;;;;4.15;2.15;;;28.90;85.30;;;;;;5017324;28;20051;-82
2022/07/30 09:13:34;;;;;;;7.25;3.22;;;29.20;82.60;;;;;;5033420;28;20535;-82
2022/07/30 09:16:01;;;;;;;3.72;2.40;;;29.40;80.90;;;;;;5014804;28;20037;-82
2022/07/30 09:18:27;;;;;;;4.82;2.25;;;29.50;79.00;;;;;;5010617;28;20036;-82
2022/07/30 09:20:52;;;;;;;4.72;2.22;;;29.70;77.70;;;;;;5011218;28;20061;-82
2022/07/30 09:23:18;;;;;;;3.88;2.13;;;29.80;76.10;;;;;;5032699;28;20071;-82
2022/07/30 09:25:46;;;;;;;4.10;2.00;;;29.90;76.50;;;;;;5012090;28;20079;-82
2022/07/30 09:28:13;;;;;;;4.32;1.77;;;30.10;74.80;;;;;;5015310;28;20044;-82
2022/07/30 09:30:50;;;;;;;3.28;1.80;;;30.20;73.50;;;;;;5017366;28;20059;-83
2022/07/30 09:33:38;;;;;;;5.07;2.08;;;30.40;70.60;;;;;;5017271;28;20040;-82
2022/07/30 09:36:06;;;;;;;5.80;2.00;;;30.40;67.90;;;;;;5016609;28;20037;-82
2022/07/30 09:38:52;;;;;;;4.50;1.77;;;30.40;70.00;;;;;;5016196;28;20380;-83
2022/07/30 09:41:30;;;;;;;5.20;2.00;;;30.40;68.50;;;;;;5027061;28;20419;-83
2022/07/30 09:43:56;;;;;;;4.55;2.25;;;30.50;70.10;;;;;;5014369;28;20073;-83
2022/07/30 09:46:22;;;;;;;3.33;2.15;;;30.60;69.30;;;;;;5032098;28;20083;-83
2022/07/30 09:48:48;;;;;;;3.83;2.28;;;30.50;68.30;;;;;;5022004;28;20041;-84
2022/07/30 09:51:14;;;;;;;4.25;1.98;;;30.40;68.30;;;;;;5017489;28;20036;-82
2022/07/30 09:53:57;;;;;;;2.38;1.70;;;30.20;68.00;;;;;;5026466;28;20045;-80
2022/07/30 09:56:26;;;;;;;4.20;1.90;;;29.80;65.80;;;;;;5032635;28;20507;-80
2022/07/30 09:58:52;;;;;;;2.95;1.63;;;29.40;67.60;;;;;;5013364;28;20088;-81
2022/07/30 10:01:17;;;;;;;3.10;1.55;;;29.50;69.20;;;;;;5023839;28;20033;-82
2022/07/30 10:03:44;;;;;;;3.30;1.77;;;29.40;68.40;;;;;;5034337;28;20120;-81
2022/07/30 10:06:10;;;;;;;2.88;1.80;;;29.10;67.50;;;;;;5030494;28;20049;-80
2022/07/30 10:08:43;;;;;;;3.13;1.80;;;28.70;67.30;;;;;;5022353;28;20029;-78
2022/07/30 10:11:14;;;;;;;3.78;1.48;;;28.50;67.80;;;;;;5033485;28;20044;-78
2022/07/30 10:13:41;;;;;;;4.35;1.70;;;28.60;69.30;;;;;;5025256;28;20095;-78
2022/07/30 10:16:07;;;;;;;3.85;1.90;;;29.10;69.30;;;;;;5031754;28;20449;-78
2022/07/30 10:18:34;;;;;;;1.95;1.50;;;29.50;67.70;;;;;;5031768;28;20029;-79
2022/07/30 10:21:02;;;;;;;2.53;1.67;;;29.70;67.40;;;;;;5017524;28;20048;-79
2022/07/30 10:23:28;;;;;;;3.67;1.60;;;29.90;67.10;;;;;;5030884;28;20029;-79
2022/07/30 10:25:55;;;;;;;2.75;1.70;;;30.10;66.40;;;;;;5028323;28;20040;-80
2022/07/30 10:28:23;;;;;;;3.70;1.60;;;30.10;65.90;;;;;;5017707;28;20490;-82
2022/07/30 10:30:49;;;;;;;2.10;1.30;;;30.20;65.10;;;;;;5034610;28;20099;-80
2022/07/30 10:33:16;;;;;;;3.50;1.65;;;30.30;65.00;;;;;;5015193;28;20055;-79
2022/07/30 10:35:42;;;;;;;2.10;1.35;;;30.40;63.90;;;;;;5033210;28;20079;-82
2022/07/30 10:38:10;;;;;;;4.00;1.42;;;30.40;64.00;;;;;;5033098;28;20029;-83
2022/07/30 10:40:51;;;;;;;2.47;1.45;;;30.40;63.90;;;;;;5017462;28;20036;-83
2022/07/30 10:43:36;;;;;;;2.65;1.30;;;30.40;64.60;;;;;;5023766;28;20377;-85
2022/07/30 10:46:13;;;;;;;3.28;1.55;;;30.50;61.00;;;;;;5033365;28;20048;-85
2022/07/30 10:48:40;;;;;;;5.28;1.60;;;30.60;63.20;;;;;;5031582;28;20095;-83
2022/07/30 10:51:05;;;;;;;2.33;1.20;;;30.70;63.40;;;;;;5027497;28;20557;-83
2022/07/30 10:53:46;;;;;;;1.58;1.05;;;30.70;63.20;;;;;;5013988;28;20029;-84
2022/07/30 10:56:18;;;;;;;2.58;1.20;;;30.90;62.60;;;;;;5032739;28;20041;-84
2022/07/30 10:59:01;;;;;;;;;;;31.00;61.70;;;;;;5017823;28;20119;-83
2022/07/30 11:01:46;;;;;;;2.45;1.02;;;30.90;59.70;;;;;;5032768;28;19916;-83
2022/07/30 11:04:25;;;;;;;2.35;1.17;;;31.00;59.20;;;;;;5028361;28;20040;-83
2022/07/30 11:07:12;;;;;;;2.97;1.60;;;31.00;61.10;;;;;;5017397;28;20045;-85
2022/07/30 11:09:39;;;;;;;2.92;1.35;;;31.00;61.00;;;;;;5017332;28;20048;-84
2022/07/30 11:12:06;;;;;;;2.15;1.13;;;30.90;59.90;;;;;;5026544;28;20044;-83
2022/07/30 11:14:47;;;;;;;14.35;1.80;;;30.90;60.20;;;;;;5014399;28;20033;-85
2022/07/30 11:17:17;;;;;;;1.35;1.00;;;31.00;59.80;;;;;;5017349;28;20037;-83
2022/07/30 11:20:01;;;;;;;3.72;1.15;;;31.10;60.60;;;;;;5009431;28;20067;-84
2022/07/30 11:22:39;;;;;;;3.15;1.25;;;31.20;59.90;;;;;;5029914;28;20040;-83
2022/07/30 11:25:21;;;;;;;2.38;1.20;;;31.30;60.50;;;;;;4997750;28;20037;-83
2022/07/30 11:27:49;;;;;;;5.50;1.30;;;31.40;60.60;;;;;;4998713;28;20033;-84
2022/07/30 11:30:14;;;;;;;2.70;1.30;;;31.50;60.60;;;;;;5024970;28;20042;-84
2022/07/30 11:32:44;;;;;;;1.80;1.10;;;31.60;60.10;;;;;;5018841;28;20040;-83
2022/07/30 11:35:14;;;;;;;1.60;0.93;;;31.60;59.00;;;;;;5037178;28;20036;-83
2022/07/30 11:38:08;;;;;;;3.45;1.20;;;31.60;58.40;;;;;;5020566;28;20037;-83
2022/07/30 11:40:54;;;;;;;2.90;1.23;;;31.60;58.20;;;;;;5036476;28;20083;-83
2022/07/30 11:43:28;;;;;;;2.35;1.15;;;31.60;56.60;;;;;;5010383;28;20045;-84
2022/07/30 11:46:14;;;;;;;2.47;1.35;;;31.70;58.50;;;;;;5019975;28;20087;-83
2022/07/30 11:48:43;;;;;;;3.65;1.38;;;31.80;55.00;;;;;;5036835;28;20044;-83
2022/07/30 11:51:09;;;;;;;2.45;1.13;;;31.90;57.70;;;;;;5036423;28;20037;-83
2022/07/30 11:53:35;;;;;;;3.05;1.30;;;32.00;57.20;;;;;;5020935;28;20069;-83
2022/07/30 11:56:02;;;;;;;2.55;1.30;;;31.90;56.20;;;;;;5019965;28;20033;-83
2022/07/30 11:58:33;;;;;;;2.13;0.93;;;31.70;56.00;;;;;;5036641;28;20029;-83
2022/07/30 12:01:02;;;;;;;2.22;1.27;;;31.60;56.30;;;;;;5015227;28;20080;-82
2022/07/30 12:03:32;;;;;;;3.20;0.90;;;31.50;56.60;;;;;;5027392;28;20132;-83
2022/07/30 12:06:06;;;;;;;2.92;1.05;;;31.30;56.00;;;;;;5017325;28;20037;-83
2022/07/30 12:08:46;;;;;;;4.00;1.30;;;31.20;55.70;;;;;;5016749;28;20042;-83
2022/07/30 12:11:11;;;;;;;3.28;1.23;;;31.10;56.10;;;;;;5008217;28;20041;-83
2022/07/30 12:13:39;;;;;;;2.85;1.05;;;31.20;56.60;;;;;;5036857;28;20078;-82
2022/07/30 12:16:12;;;;;;;4.32;1.20;;;31.20;55.90;;;;;;5020294;28;20045;-83
2022/07/30 12:18:38;;;;;;;1.95;0.82;;;31.30;56.10;;;;;;5036507;28;20075;-82
2022/07/30 12:21:10;;;;;;;2.45;1.25;;;31.30;55.70;;;;;;5034325;28;20061;-84
2022/07/30 12:23:36;;;;;;;1.40;0.90;;;31.20;54.80;;;;;;5011898;28;20121;-84
2022/07/30 12:26:02;;;;;;;2.55;1.00;;;31.10;55.90;;;;;;5036447;28;20120;-83
2022/07/30 12:28:31;;;;;;;2.33;1.00;;;31.20;55.80;;;;;;5036139;28;20070;-83
2022/07/30 12:30:59;;;;;;;2.67;0.85;;;31.30;55.90;;;;;;5015256;28;20037;-83
2022/07/30 12:33:25;;;;;;;3.97;0.90;;;31.30;56.40;;;;;;5016051;28;20040;-84
2022/07/30 12:35:56;;;;;;;4.05;1.00;;;31.30;55.40;;;;;;5036265;28;20045;-83
2022/07/30 12:38:24;;;;;;;1.45;1.00;;;31.30;54.70;;;;;;5019398;28;20463;-82
2022/07/30 12:41:10;;;;;;;1.50;0.85;;;31.30;54.70;;;;;;5035560;28;20037;-83
2022/07/30 12:43:55;;;;;;;1.58;0.80;;;31.30;52.10;;;;;;5019371;28;20040;-83